sensor_id;sensor_type;location;lat;lon;timestamp;temperature;humidity
35491;DHT22;21605;52.068;20.806;2022-08-06T00:02:20;21.50;92.70
35491;DHT22;21605;52.068;20.806;2022-08-06T00:04:50;21.40;92.80
35491;DHT22;21605;52.068;20.806;2022-08-06T00:07:16;21.50;92.90
35491;DHT22;21605;52.068;20.806;2022-08-06T00:09:42;21.40;92.70
35491;DHT22;21605;52.068;20.806;2022-08-06T00:12:09;21.40;93.20
35491;DHT22;21605;52.068;20.806;2022-08-06T00:14:35;21.40;92.90
35491;DHT22;21605;52.068;20.806;2022-08-06T00:17:00;21.40;93.00
35491;DHT22;21605;52.068;20.806;2022-08-06T00:19:26;21.30;93.10
35491;DHT22;21605;52.068;20.806;2022-08-06T00:21:53;21.30;93.30
35491;DHT22;21605;52.068;20.806;2022-08-06T00:24:19;21.30;93.00
35491;DHT22;21605;52.068;20.806;2022-08-06T00:26:45;21.30;93.40
35491;DHT22;21605;52.068;20.806;2022-08-06T00:29:10;21.20;93.10
35491;DHT22;21605;52.068;20.806;2022-08-06T00:31:36;21.20;92.80
35491;DHT22;21605;52.068;20.806;2022-08-06T00:34:02;21.20;93.20
35491;DHT22;21605;52.068;20.806;2022-08-06T00:36:31;21.10;93.40
35491;DHT22;21605;52.068;20.806;2022-08-06T00:38:58;21.10;93.30
35491;DHT22;21605;52.068;20.806;2022-08-06T00:41:25;21.10;93.30
35491;DHT22;21605;52.068;20.806;2022-08-06T00:43:50;21.10;93.10
35491;DHT22;21605;52.068;20.806;2022-08-06T00:46:16;21.10;93.90
35491;DHT22;21605;52.068;20.806;2022-08-06T00:48:42;21.10;93.50
35491;DHT22;21605;52.068;20.806;2022-08-06T00:51:08;21.00;93.60
35491;DHT22;21605;52.068;20.806;2022-08-06T00:53:34;21.00;93.60
35491;DHT22;21605;52.068;20.806;2022-08-06T00:56:02;21.00;93.50
35491;DHT22;21605;52.068;20.806;2022-08-06T00:58:28;20.90;94.30
35491;DHT22;21605;52.068;20.806;2022-08-06T01:00:54;20.90;92.30
35491;DHT22;21605;52.068;20.806;2022-08-06T01:03:20;20.90;93.70
35491;DHT22;21605;52.068;20.806;2022-08-06T01:05:45;20.90;93.80
35491;DHT22;21605;52.068;20.806;2022-08-06T01:08:11;20.80;93.90
35491;DHT22;21605;52.068;20.806;2022-08-06T01:10:38;20.80;93.90
35491;DHT22;21605;52.068;20.806;2022-08-06T01:13:04;20.70;93.80
35491;DHT22;21605;52.068;20.806;2022-08-06T01:15:33;20.70;93.40
35491;DHT22;21605;52.068;20.806;2022-08-06T01:18:04;20.70;94.40
35491;DHT22;21605;52.068;20.806;2022-08-06T01:21:07;20.60;94.20
35491;DHT22;21605;52.068;20.806;2022-08-06T01:24:09;20.50;91.00
35491;DHT22;21605;52.068;20.806;2022-08-06T01:29:37;20.40;92.80
35491;DHT22;21605;52.068;20.806;2022-08-06T01:32:15;20.40;94.00
35491;DHT22;21605;52.068;20.806;2022-08-06T01:34:51;20.40;94.50
35491;DHT22;21605;52.068;20.806;2022-08-06T01:37:31;20.30;94.20
35491;DHT22;21605;52.068;20.806;2022-08-06T01:40:02;20.30;94.30
35491;DHT22;21605;52.068;20.806;2022-08-06T01:42:30;20.20;94.60
35491;DHT22;21605;52.068;20.806;2022-08-06T01:45:00;20.20;94.70
35491;DHT22;21605;52.068;20.806;2022-08-06T01:47:27;20.10;94.00
35491;DHT22;21605;52.068;20.806;2022-08-06T01:49:57;20.10;95.30
35491;DHT22;21605;52.068;20.806;2022-08-06T01:52:25;20.10;95.40
35491;DHT22;21605;52.068;20.806;2022-08-06T01:54:54;20.10;95.20
35491;DHT22;21605;52.068;20.806;2022-08-06T01:57:24;20.00;95.80
35491;DHT22;21605;52.068;20.806;2022-08-06T01:59:53;20.00;95.20
35491;DHT22;21605;52.068;20.806;2022-08-06T02:02:22;20.00;95.60
35491;DHT22;21605;52.068;20.806;2022-08-06T02:04:51;20.00;96.00
35491;DHT22;21605;52.068;20.806;2022-08-06T02:07:21;20.00;95.90
35491;DHT22;21605;52.068;20.806;2022-08-06T02:09:49;19.90;96.10
35491;DHT22;21605;52.068;20.806;2022-08-06T02:12:19;19.90;96.20
35491;DHT22;21605;52.068;20.806;2022-08-06T02:14:51;19.90;96.50
35491;DHT22;21605;52.068;20.806;2022-08-06T02:17:20;19.80;96.30
35491;DHT22;21605;52.068;20.806;2022-08-06T02:19:50;19.80;96.60
35491;DHT22;21605;52.068;20.806;2022-08-06T02:22:17;19.80;96.80
35491;DHT22;21605;52.068;20.806;2022-08-06T02:24:45;19.80;96.70
35491;DHT22;21605;52.068;20.806;2022-08-06T02:27:12;19.70;96.60
35491;DHT22;21605;52.068;20.806;2022-08-06T02:29:41;19.70;96.80
35491;DHT22;21605;52.068;20.806;2022-08-06T02:32:08;19.70;96.70
35491;DHT22;21605;52.068;20.806;2022-08-06T02:34:34;19.60;96.90
35491;DHT22;21605;52.068;20.806;2022-08-06T02:37:20;19.70;97.60
35491;DHT22;21605;52.068;20.806;2022-08-06T02:39:53;19.60;97.50
35491;DHT22;21605;52.068;20.806;2022-08-06T02:42:32;19.60;97.50
35491;DHT22;21605;52.068;20.806;2022-08-06T02:45:02;19.60;97.40
35491;DHT22;21605;52.068;20.806;2022-08-06T02:47:40;19.60;97.80
35491;DHT22;21605;52.068;20.806;2022-08-06T02:50:08;19.60;97.90
35491;DHT22;21605;52.068;20.806;2022-08-06T02:52:43;19.50;97.90
35491;DHT22;21605;52.068;20.806;2022-08-06T02:55:21;19.50;97.80
35491;DHT22;21605;52.068;20.806;2022-08-06T02:57:51;19.50;98.00
35491;DHT22;21605;52.068;20.806;2022-08-06T03:00:18;19.50;98.20
35491;DHT22;21605;52.068;20.806;2022-08-06T03:02:45;19.40;98.20
35491;DHT22;21605;52.068;20.806;2022-08-06T03:05:18;19.40;98.20
35491;DHT22;21605;52.068;20.806;2022-08-06T03:07:47;19.40;98.30
35491;DHT22;21605;52.068;20.806;2022-08-06T03:10:14;19.40;98.60
35491;DHT22;21605;52.068;20.806;2022-08-06T03:12:42;19.30;98.40
35491;DHT22;21605;52.068;20.806;2022-08-06T03:15:08;19.30;98.20
35491;DHT22;21605;52.068;20.806;2022-08-06T03:17:38;19.30;98.20
35491;DHT22;21605;52.068;20.806;2022-08-06T03:20:06;19.30;98.00
35491;DHT22;21605;52.068;20.806;2022-08-06T03:22:33;19.30;98.10
35491;DHT22;21605;52.068;20.806;2022-08-06T03:25:01;19.30;98.30
35491;DHT22;21605;52.068;20.806;2022-08-06T03:27:28;19.30;98.50
35491;DHT22;21605;52.068;20.806;2022-08-06T03:29:55;19.30;98.50
35491;DHT22;21605;52.068;20.806;2022-08-06T03:32:21;19.30;98.90
35491;DHT22;21605;52.068;20.806;2022-08-06T03:34:48;19.40;98.70
35491;DHT22;21605;52.068;20.806;2022-08-06T03:37:17;19.40;98.70
35491;DHT22;21605;52.068;20.806;2022-08-06T03:39:43;19.40;98.80
35491;DHT22;21605;52.068;20.806;2022-08-06T03:42:10;19.40;99.10
35491;DHT22;21605;52.068;20.806;2022-08-06T03:44:36;19.40;99.10
35491;DHT22;21605;52.068;20.806;2022-08-06T03:47:27;19.50;99.20
35491;DHT22;21605;52.068;20.806;2022-08-06T03:50:14;19.50;99.40
35491;DHT22;21605;52.068;20.806;2022-08-06T03:52:46;19.60;99.70
35491;DHT22;21605;52.068;20.806;2022-08-06T03:55:16;19.60;99.90
35491;DHT22;21605;52.068;20.806;2022-08-06T03:57:46;19.60;99.80
35491;DHT22;21605;52.068;20.806;2022-08-06T04:00:14;19.70;99.90
35491;DHT22;21605;52.068;20.806;2022-08-06T04:02:46;19.70;99.90
35491;DHT22;21605;52.068;20.806;2022-08-06T04:05:20;19.80;99.90
35491;DHT22;21605;52.068;20.806;2022-08-06T04:07:48;19.80;99.90
35491;DHT22;21605;52.068;20.806;2022-08-06T04:10:15;19.90;99.90
35491;DHT22;21605;52.068;20.806;2022-08-06T04:12:43;20.00;99.90
35491;DHT22;21605;52.068;20.806;2022-08-06T04:15:13;20.00;99.90
35491;DHT22;21605;52.068;20.806;2022-08-06T04:17:42;20.10;99.60
35491;DHT22;21605;52.068;20.806;2022-08-06T04:20:10;20.10;99.30
35491;DHT22;21605;52.068;20.806;2022-08-06T04:22:36;20.20;99.60
35491;DHT22;21605;52.068;20.806;2022-08-06T04:25:03;20.20;99.60
35491;DHT22;21605;52.068;20.806;2022-08-06T04:27:29;20.30;99.90
35491;DHT22;21605;52.068;20.806;2022-08-06T04:29:56;20.30;99.90
35491;DHT22;21605;52.068;20.806;2022-08-06T04:32:24;20.40;99.90
35491;DHT22;21605;52.068;20.806;2022-08-06T04:34:51;20.50;99.90
35491;DHT22;21605;52.068;20.806;2022-08-06T04:37:18;20.60;99.90
35491;DHT22;21605;52.068;20.806;2022-08-06T04:39:44;20.60;99.90
35491;DHT22;21605;52.068;20.806;2022-08-06T04:42:11;20.70;99.90
35491;DHT22;21605;52.068;20.806;2022-08-06T04:44:37;20.80;99.90
35491;DHT22;21605;52.068;20.806;2022-08-06T04:47:03;20.70;99.90
35491;DHT22;21605;52.068;20.806;2022-08-06T04:49:30;20.80;99.90
35491;DHT22;21605;52.068;20.806;2022-08-06T04:51:57;20.90;99.90
35491;DHT22;21605;52.068;20.806;2022-08-06T04:54:23;20.90;99.90
35491;DHT22;21605;52.068;20.806;2022-08-06T04:56:48;20.90;99.90
35491;DHT22;21605;52.068;20.806;2022-08-06T04:59:14;20.90;99.90
35491;DHT22;21605;52.068;20.806;2022-08-06T05:01:39;21.00;99.90
35491;DHT22;21605;52.068;20.806;2022-08-06T05:04:05;21.10;99.90
35491;DHT22;21605;52.068;20.806;2022-08-06T05:06:57;21.10;99.90
35491;DHT22;21605;52.068;20.806;2022-08-06T05:09:27;21.10;99.90
35491;DHT22;21605;52.068;20.806;2022-08-06T05:12:05;21.20;99.90
35491;DHT22;21605;52.068;20.806;2022-08-06T05:14:48;21.20;99.90
35491;DHT22;21605;52.068;20.806;2022-08-06T05:17:17;21.30;99.90
35491;DHT22;21605;52.068;20.806;2022-08-06T05:19:50;21.30;99.90
35491;DHT22;21605;52.068;20.806;2022-08-06T05:22:18;21.30;99.70
35491;DHT22;21605;52.068;20.806;2022-08-06T05:24:45;21.40;99.90
35491;DHT22;21605;52.068;20.806;2022-08-06T05:27:13;21.40;99.90
35491;DHT22;21605;52.068;20.806;2022-08-06T05:29:40;21.40;99.90
35491;DHT22;21605;52.068;20.806;2022-08-06T05:32:06;21.50;99.90
35491;DHT22;21605;52.068;20.806;2022-08-06T05:34:32;21.50;99.90
35491;DHT22;21605;52.068;20.806;2022-08-06T05:36:57;21.50;99.90
35491;DHT22;21605;52.068;20.806;2022-08-06T05:39:23;21.50;99.90
35491;DHT22;21605;52.068;20.806;2022-08-06T05:41:49;21.50;99.90
35491;DHT22;21605;52.068;20.806;2022-08-06T05:44:15;21.50;99.90
35491;DHT22;21605;52.068;20.806;2022-08-06T05:46:47;21.60;99.90
35491;DHT22;21605;52.068;20.806;2022-08-06T05:49:28;21.50;99.90
35491;DHT22;21605;52.068;20.806;2022-08-06T05:52:06;21.60;99.90
35491;DHT22;21605;52.068;20.806;2022-08-06T05:54:37;21.50;99.90
35491;DHT22;21605;52.068;20.806;2022-08-06T05:57:14;21.50;99.90
35491;DHT22;21605;52.068;20.806;2022-08-06T05:59:50;21.60;99.90
35491;DHT22;21605;52.068;20.806;2022-08-06T06:02:18;21.60;99.90
35491;DHT22;21605;52.068;20.806;2022-08-06T06:04:46;21.60;99.90
35491;DHT22;21605;52.068;20.806;2022-08-06T06:07:13;21.70;99.90
35491;DHT22;21605;52.068;20.806;2022-08-06T06:09:41;21.60;99.90
35491;DHT22;21605;52.068;20.806;2022-08-06T06:12:09;21.60;99.90
35491;DHT22;21605;52.068;20.806;2022-08-06T06:14:40;21.60;99.90
35491;DHT22;21605;52.068;20.806;2022-08-06T06:22:41;21.70;99.90
35491;DHT22;21605;52.068;20.806;2022-08-06T06:25:25;21.70;99.90
35491;DHT22;21605;52.068;20.806;2022-08-06T06:30:28;21.70;99.90
35491;DHT22;21605;52.068;20.806;2022-08-06T06:38:21;21.70;99.90
35491;DHT22;21605;52.068;20.806;2022-08-06T06:41:03;21.80;99.90
35491;DHT22;21605;52.068;20.806;2022-08-06T06:48:41;21.80;99.90
35491;DHT22;21605;52.068;20.806;2022-08-06T06:51:11;21.80;99.90
35491;DHT22;21605;52.068;20.806;2022-08-06T06:53:44;21.80;99.90
35491;DHT22;21605;52.068;20.806;2022-08-06T06:56:13;21.90;99.90
35491;DHT22;21605;52.068;20.806;2022-08-06T06:58:45;21.90;99.90
35491;DHT22;21605;52.068;20.806;2022-08-06T07:01:14;21.80;99.90
35491;DHT22;21605;52.068;20.806;2022-08-06T07:03:41;21.80;99.90
35491;DHT22;21605;52.068;20.806;2022-08-06T07:06:09;21.80;99.90
35491;DHT22;21605;52.068;20.806;2022-08-06T07:08:39;21.80;99.90
35491;DHT22;21605;52.068;20.806;2022-08-06T07:11:11;21.80;99.90
35491;DHT22;21605;52.068;20.806;2022-08-06T07:13:41;21.80;99.90
35491;DHT22;21605;52.068;20.806;2022-08-06T07:16:11;21.80;99.90
35491;DHT22;21605;52.068;20.806;2022-08-06T07:18:37;21.70;99.90
35491;DHT22;21605;52.068;20.806;2022-08-06T07:21:05;21.70;99.90
35491;DHT22;21605;52.068;20.806;2022-08-06T07:23:32;21.70;99.90
35491;DHT22;21605;52.068;20.806;2022-08-06T07:25:59;21.70;99.90
35491;DHT22;21605;52.068;20.806;2022-08-06T07:28:27;21.70;99.90
35491;DHT22;21605;52.068;20.806;2022-08-06T07:30:53;21.70;99.90
35491;DHT22;21605;52.068;20.806;2022-08-06T07:33:19;21.60;99.90
35491;DHT22;21605;52.068;20.806;2022-08-06T07:35:47;21.60;99.90
35491;DHT22;21605;52.068;20.806;2022-08-06T07:38:16;21.60;99.90
35491;DHT22;21605;52.068;20.806;2022-08-06T07:40:47;21.60;99.90
35491;DHT22;21605;52.068;20.806;2022-08-06T07:43:18;21.60;99.90
35491;DHT22;21605;52.068;20.806;2022-08-06T07:45:45;21.60;99.90
35491;DHT22;21605;52.068;20.806;2022-08-06T07:48:13;21.60;99.90
35491;DHT22;21605;52.068;20.806;2022-08-06T07:50:43;21.60;99.90
35491;DHT22;21605;52.068;20.806;2022-08-06T07:53:10;21.50;99.90
35491;DHT22;21605;52.068;20.806;2022-08-06T07:55:36;21.50;99.90
35491;DHT22;21605;52.068;20.806;2022-08-06T07:58:04;21.50;99.90
35491;DHT22;21605;52.068;20.806;2022-08-06T08:00:30;21.50;99.90
35491;DHT22;21605;52.068;20.806;2022-08-06T08:02:56;21.50;99.90
35491;DHT22;21605;52.068;20.806;2022-08-06T08:05:41;21.50;99.90
35491;DHT22;21605;52.068;20.806;2022-08-06T08:08:26;21.50;99.90
35491;DHT22;21605;52.068;20.806;2022-08-06T08:10:56;21.40;99.90
35491;DHT22;21605;52.068;20.806;2022-08-06T08:13:23;21.40;99.90
35491;DHT22;21605;52.068;20.806;2022-08-06T08:15:50;21.50;99.90
35491;DHT22;21605;52.068;20.806;2022-08-06T08:18:16;21.40;99.90
35491;DHT22;21605;52.068;20.806;2022-08-06T08:20:43;21.40;99.90
35491;DHT22;21605;52.068;20.806;2022-08-06T08:23:12;21.40;99.90
35491;DHT22;21605;52.068;20.806;2022-08-06T08:25:38;21.40;99.90
35491;DHT22;21605;52.068;20.806;2022-08-06T08:28:05;21.30;99.90
35491;DHT22;21605;52.068;20.806;2022-08-06T08:30:31;21.30;99.90
35491;DHT22;21605;52.068;20.806;2022-08-06T08:32:57;21.30;99.90
35491;DHT22;21605;52.068;20.806;2022-08-06T08:35:22;21.30;99.90
35491;DHT22;21605;52.068;20.806;2022-08-06T08:37:48;21.20;99.90
35491;DHT22;21605;52.068;20.806;2022-08-06T08:40:14;21.30;99.90
35491;DHT22;21605;52.068;20.806;2022-08-06T08:42:43;21.30;99.90
35491;DHT22;21605;52.068;20.806;2022-08-06T08:45:09;21.20;99.90
35491;DHT22;21605;52.068;20.806;2022-08-06T08:47:38;21.20;99.90
35491;DHT22;21605;52.068;20.806;2022-08-06T08:50:05;21.30;99.90
35491;DHT22;21605;52.068;20.806;2022-08-06T08:52:34;21.20;99.90
35491;DHT22;21605;52.068;20.806;2022-08-06T08:55:04;21.30;99.90
35491;DHT22;21605;52.068;20.806;2022-08-06T08:57:31;21.30;99.90
35491;DHT22;21605;52.068;20.806;2022-08-06T09:00:01;21.30;99.90
35491;DHT22;21605;52.068;20.806;2022-08-06T09:02:27;21.30;99.90
35491;DHT22;21605;52.068;20.806;2022-08-06T09:04:53;21.30;99.90
35491;DHT22;21605;52.068;20.806;2022-08-06T09:07:19;21.30;99.90
35491;DHT22;21605;52.068;20.806;2022-08-06T09:09:45;21.30;99.90
35491;DHT22;21605;52.068;20.806;2022-08-06T09:12:11;21.30;99.90
35491;DHT22;21605;52.068;20.806;2022-08-06T09:14:37;21.30;99.90
35491;DHT22;21605;52.068;20.806;2022-08-06T09:17:04;21.30;99.90
35491;DHT22;21605;52.068;20.806;2022-08-06T09:19:31;21.20;99.90
35491;DHT22;21605;52.068;20.806;2022-08-06T09:21:58;21.20;99.90
35491;DHT22;21605;52.068;20.806;2022-08-06T09:24:24;21.20;99.90
35491;DHT22;21605;52.068;20.806;2022-08-06T09:27:23;21.20;99.90
35491;DHT22;21605;52.068;20.806;2022-08-06T09:29:58;21.20;99.90
35491;DHT22;21605;52.068;20.806;2022-08-06T09:32:44;21.20;99.90
35491;DHT22;21605;52.068;20.806;2022-08-06T09:35:22;21.10;99.90
35491;DHT22;21605;52.068;20.806;2022-08-06T09:37:49;21.10;99.90
35491;DHT22;21605;52.068;20.806;2022-08-06T09:40:17;21.00;99.90
35491;DHT22;21605;52.068;20.806;2022-08-06T09:42:45;20.90;99.90
35491;DHT22;21605;52.068;20.806;2022-08-06T09:45:14;20.90;99.90
35491;DHT22;21605;52.068;20.806;2022-08-06T09:47:41;20.80;99.90
35491;DHT22;21605;52.068;20.806;2022-08-06T09:50:07;20.70;99.90
35491;DHT22;21605;52.068;20.806;2022-08-06T09:52:34;20.70;99.90
35491;DHT22;21605;52.068;20.806;2022-08-06T09:55:00;20.60;99.90
35491;DHT22;21605;52.068;20.806;2022-08-06T09:57:40;20.50;99.90
35491;DHT22;21605;52.068;20.806;2022-08-06T10:00:07;20.50;99.90
35491;DHT22;21605;52.068;20.806;2022-08-06T10:02:34;20.40;99.90
35491;DHT22;21605;52.068;20.806;2022-08-06T10:05:07;20.40;99.90
35491;DHT22;21605;52.068;20.806;2022-08-06T10:07:33;20.40;99.90
35491;DHT22;21605;52.068;20.806;2022-08-06T10:09:59;20.30;99.90
35491;DHT22;21605;52.068;20.806;2022-08-06T10:12:25;20.30;99.90
35491;DHT22;21605;52.068;20.806;2022-08-06T10:14:51;20.20;99.90
35491;DHT22;21605;52.068;20.806;2022-08-06T10:17:20;20.20;99.90
35491;DHT22;21605;52.068;20.806;2022-08-06T10:19:49;20.10;99.90
35491;DHT22;21605;52.068;20.806;2022-08-06T10:22:28;19.90;99.90
35491;DHT22;21605;52.068;20.806;2022-08-06T10:24:55;19.90;99.90
35491;DHT22;21605;52.068;20.806;2022-08-06T10:27:23;19.90;99.90
35491;DHT22;21605;52.068;20.806;2022-08-06T10:32:23;19.80;99.90
35491;DHT22;21605;52.068;20.806;2022-08-06T10:34:51;19.70;99.90
35491;DHT22;21605;52.068;20.806;2022-08-06T10:37:19;19.60;99.90
35491;DHT22;21605;52.068;20.806;2022-08-06T10:39:47;19.60;99.90
35491;DHT22;21605;52.068;20.806;2022-08-06T10:42:15;19.60;99.90
35491;DHT22;21605;52.068;20.806;2022-08-06T10:44:42;19.60;99.90
35491;DHT22;21605;52.068;20.806;2022-08-06T10:47:10;19.50;99.90
35491;DHT22;21605;52.068;20.806;2022-08-06T10:49:36;19.50;99.90
35491;DHT22;21605;52.068;20.806;2022-08-06T10:52:02;19.50;99.90
35491;DHT22;21605;52.068;20.806;2022-08-06T10:54:30;19.50;99.90
35491;DHT22;21605;52.068;20.806;2022-08-06T10:56:57;19.50;99.90
35491;DHT22;21605;52.068;20.806;2022-08-06T10:59:23;19.50;99.90
35491;DHT22;21605;52.068;20.806;2022-08-06T11:02:03;19.40;99.90
35491;DHT22;21605;52.068;20.806;2022-08-06T11:04:56;19.50;99.90
35491;DHT22;21605;52.068;20.806;2022-08-06T11:15:22;19.50;99.90
35491;DHT22;21605;52.068;20.806;2022-08-06T11:17:53;19.50;99.90
35491;DHT22;21605;52.068;20.806;2022-08-06T11:20:43;19.50;99.90
35491;DHT22;21605;52.068;20.806;2022-08-06T11:28:08;19.50;99.90
35491;DHT22;21605;52.068;20.806;2022-08-06T11:30:38;19.50;99.90
35491;DHT22;21605;52.068;20.806;2022-08-06T11:33:05;18.70;99.90
35491;DHT22;21605;52.068;20.806;2022-08-06T11:38:07;19.40;99.90
35491;DHT22;21605;52.068;20.806;2022-08-06T11:43:46;19.40;99.90
35491;DHT22;21605;52.068;20.806;2022-08-06T11:46:27;19.30;99.90
35491;DHT22;21605;52.068;20.806;2022-08-06T11:59:42;19.20;99.90
35491;DHT22;21605;52.068;20.806;2022-08-06T12:02:16;19.20;99.90
35491;DHT22;21605;52.068;20.806;2022-08-06T12:04:44;19.20;99.90
35491;DHT22;21605;52.068;20.806;2022-08-06T12:07:19;19.20;99.90
35491;DHT22;21605;52.068;20.806;2022-08-06T12:12:35;19.10;99.90
35491;DHT22;21605;52.068;20.806;2022-08-06T12:15:03;19.10;99.90
35491;DHT22;21605;52.068;20.806;2022-08-06T12:17:30;19.10;99.90
35491;DHT22;21605;52.068;20.806;2022-08-06T12:19:58;19.10;99.90
35491;DHT22;21605;52.068;20.806;2022-08-06T12:22:28;19.10;99.90
35491;DHT22;21605;52.068;20.806;2022-08-06T12:24:56;19.10;99.90
35491;DHT22;21605;52.068;20.806;2022-08-06T12:27:34;19.10;99.90
35491;DHT22;21605;52.068;20.806;2022-08-06T12:30:03;19.20;99.90
35491;DHT22;21605;52.068;20.806;2022-08-06T12:32:34;19.20;99.90
35491;DHT22;21605;52.068;20.806;2022-08-06T12:35:13;19.20;99.90
35491;DHT22;21605;52.068;20.806;2022-08-06T12:37:41;19.20;99.90
35491;DHT22;21605;52.068;20.806;2022-08-06T12:40:13;19.20;99.90
35491;DHT22;21605;52.068;20.806;2022-08-06T12:45:26;19.30;99.90
35491;DHT22;21605;52.068;20.806;2022-08-06T12:47:59;19.30;99.90
35491;DHT22;21605;52.068;20.806;2022-08-06T12:50:25;19.40;99.90
35491;DHT22;21605;52.068;20.806;2022-08-06T12:53:08;19.40;99.90
35491;DHT22;21605;52.068;20.806;2022-08-06T12:58:08;19.50;99.90
35491;DHT22;21605;52.068;20.806;2022-08-06T13:00:35;19.60;99.90
35491;DHT22;21605;52.068;20.806;2022-08-06T13:03:01;19.60;99.90
35491;DHT22;21605;52.068;20.806;2022-08-06T13:05:28;19.60;99.90
35491;DHT22;21605;52.068;20.806;2022-08-06T13:07:55;19.60;99.90
35491;DHT22;21605;52.068;20.806;2022-08-06T13:10:21;19.70;99.90
35491;DHT22;21605;52.068;20.806;2022-08-06T13:12:59;19.70;99.90
35491;DHT22;21605;52.068;20.806;2022-08-06T13:15:27;19.80;99.90
35491;DHT22;21605;52.068;20.806;2022-08-06T13:18:14;19.90;99.90
35491;DHT22;21605;52.068;20.806;2022-08-06T13:20:47;20.00;99.90
35491;DHT22;21605;52.068;20.806;2022-08-06T13:23:15;20.10;99.90
35491;DHT22;21605;52.068;20.806;2022-08-06T13:25:49;20.20;99.90
35491;DHT22;21605;52.068;20.806;2022-08-06T13:28:20;20.30;99.90
35491;DHT22;21605;52.068;20.806;2022-08-06T13:30:47;20.30;99.90
35491;DHT22;21605;52.068;20.806;2022-08-06T13:35:39;20.30;99.90
35491;DHT22;21605;52.068;20.806;2022-08-06T13:38:05;20.40;99.90
35491;DHT22;21605;52.068;20.806;2022-08-06T13:40:46;20.40;99.90
35491;DHT22;21605;52.068;20.806;2022-08-06T13:43:12;20.40;99.90
35491;DHT22;21605;52.068;20.806;2022-08-06T13:45:38;20.40;99.90
35491;DHT22;21605;52.068;20.806;2022-08-06T13:48:06;20.50;99.90
35491;DHT22;21605;52.068;20.806;2022-08-06T13:50:33;20.50;99.90
35491;DHT22;21605;52.068;20.806;2022-08-06T13:52:59;20.50;99.90
35491;DHT22;21605;52.068;20.806;2022-08-06T13:55:25;20.60;99.90
35491;DHT22;21605;52.068;20.806;2022-08-06T13:57:52;20.60;99.90
35491;DHT22;21605;52.068;20.806;2022-08-06T14:00:18;20.60;99.90
35491;DHT22;21605;52.068;20.806;2022-08-06T14:02:44;20.70;99.90
35491;DHT22;21605;52.068;20.806;2022-08-06T14:05:10;20.70;99.90
35491;DHT22;21605;52.068;20.806;2022-08-06T14:07:35;20.70;99.90
35491;DHT22;21605;52.068;20.806;2022-08-06T14:10:01;20.70;99.90
35491;DHT22;21605;52.068;20.806;2022-08-06T14:12:27;20.70;99.90
35491;DHT22;21605;52.068;20.806;2022-08-06T14:14:52;20.70;99.90
35491;DHT22;21605;52.068;20.806;2022-08-06T14:17:18;20.80;99.90
35491;DHT22;21605;52.068;20.806;2022-08-06T14:19:44;20.90;99.90
35491;DHT22;21605;52.068;20.806;2022-08-06T14:22:10;20.90;99.90
35491;DHT22;21605;52.068;20.806;2022-08-06T14:24:36;21.00;99.90
35491;DHT22;21605;52.068;20.806;2022-08-06T14:27:02;21.00;99.90
35491;DHT22;21605;52.068;20.806;2022-08-06T14:29:27;21.00;99.90
35491;DHT22;21605;52.068;20.806;2022-08-06T14:31:54;21.00;99.90
35491;DHT22;21605;52.068;20.806;2022-08-06T14:34:20;21.00;99.90
35491;DHT22;21605;52.068;20.806;2022-08-06T14:36:45;21.00;99.90
35491;DHT22;21605;52.068;20.806;2022-08-06T14:39:11;21.00;99.90
35491;DHT22;21605;52.068;20.806;2022-08-06T14:41:37;21.00;99.90
35491;DHT22;21605;52.068;20.806;2022-08-06T14:44:21;21.00;99.90
35491;DHT22;21605;52.068;20.806;2022-08-06T14:47:05;21.00;99.90
35491;DHT22;21605;52.068;20.806;2022-08-06T14:49:36;21.00;99.40
35491;DHT22;21605;52.068;20.806;2022-08-06T14:52:05;21.00;99.60
35491;DHT22;21605;52.068;20.806;2022-08-06T14:54:31;21.00;99.80
35491;DHT22;21605;52.068;20.806;2022-08-06T14:56:58;21.00;99.80
35491;DHT22;21605;52.068;20.806;2022-08-06T14:59:24;21.00;99.70
35491;DHT22;21605;52.068;20.806;2022-08-06T15:01:51;21.00;99.70
35491;DHT22;21605;52.068;20.806;2022-08-06T15:04:18;21.10;99.30
35491;DHT22;21605;52.068;20.806;2022-08-06T15:06:44;21.00;99.40
35491;DHT22;21605;52.068;20.806;2022-08-06T15:09:09;20.90;99.60
35491;DHT22;21605;52.068;20.806;2022-08-06T15:11:37;20.90;99.60
35491;DHT22;21605;52.068;20.806;2022-08-06T15:14:03;20.90;99.80
35491;DHT22;21605;52.068;20.806;2022-08-06T15:16:29;20.90;99.90
35491;DHT22;21605;52.068;20.806;2022-08-06T15:18:55;21.00;99.90
35491;DHT22;21605;52.068;20.806;2022-08-06T15:21:21;21.00;99.90
35491;DHT22;21605;52.068;20.806;2022-08-06T15:23:47;21.00;99.90
35491;DHT22;21605;52.068;20.806;2022-08-06T15:26:13;21.00;99.90
35491;DHT22;21605;52.068;20.806;2022-08-06T15:28:38;21.00;99.90
35491;DHT22;21605;52.068;20.806;2022-08-06T15:31:04;21.10;99.90
35491;DHT22;21605;52.068;20.806;2022-08-06T15:33:31;21.10;99.90
35491;DHT22;21605;52.068;20.806;2022-08-06T15:35:58;21.10;99.50
35491;DHT22;21605;52.068;20.806;2022-08-06T15:38:24;21.00;99.70
35491;DHT22;21605;52.068;20.806;2022-08-06T15:40:51;21.00;99.70
35491;DHT22;21605;52.068;20.806;2022-08-06T15:43:17;21.00;99.60
35491;DHT22;21605;52.068;20.806;2022-08-06T15:45:43;21.00;99.60
35491;DHT22;21605;52.068;20.806;2022-08-06T15:48:08;21.00;99.90
35491;DHT22;21605;52.068;20.806;2022-08-06T15:50:34;21.00;99.50
35491;DHT22;21605;52.068;20.806;2022-08-06T15:53:00;21.10;99.60
35491;DHT22;21605;52.068;20.806;2022-08-06T15:55:25;21.10;99.40
35491;DHT22;21605;52.068;20.806;2022-08-06T15:57:51;21.10;99.20
35491;DHT22;21605;52.068;20.806;2022-08-06T16:00:17;21.10;99.50
35491;DHT22;21605;52.068;20.806;2022-08-06T16:02:43;21.10;99.40
35491;DHT22;21605;52.068;20.806;2022-08-06T16:05:08;21.10;98.90
35491;DHT22;21605;52.068;20.806;2022-08-06T16:07:34;21.10;99.40
35491;DHT22;21605;52.068;20.806;2022-08-06T16:09:59;21.10;99.20
35491;DHT22;21605;52.068;20.806;2022-08-06T16:12:25;21.20;99.00
35491;DHT22;21605;52.068;20.806;2022-08-06T16:14:51;21.20;98.80
35491;DHT22;21605;52.068;20.806;2022-08-06T16:17:17;21.20;99.10
35491;DHT22;21605;52.068;20.806;2022-08-06T16:19:43;21.20;98.90
35491;DHT22;21605;52.068;20.806;2022-08-06T16:22:08;21.20;98.30
35491;DHT22;21605;52.068;20.806;2022-08-06T16:24:34;21.20;98.50
35491;DHT22;21605;52.068;20.806;2022-08-06T16:26:59;21.20;98.80
35491;DHT22;21605;52.068;20.806;2022-08-06T16:29:29;21.10;98.60
35491;DHT22;21605;52.068;20.806;2022-08-06T16:31:56;21.20;98.50